Belden, MS

1:49 AM CDT on October 23, 2014 (GMT -0500)
Georgetown in The Villages | Change Station
CLOSE
Current Station
Personal Weather Station
Location: Tupelo, MS
Elevation: 312 ft
Nearby Weather Stations

Elev 312 ft 34.25 °N, 88.78 °W | Updated 13 minutes ago

Clear
Clear
45.9 °F
Feels Like 46 °F
N
0.0
Wind Variable Wind from WNW

Today
High -- | Low -- °F
--% Chance of Precip.
Yesterday
High -- | Low -- °F
Precip. -- in
7:07 AM 6:11 PM
Waning Crescent, 0% visible
Pressure 30.14 in
Visibility 10.0 miles
Clouds Clear
Windchill 46 °F
Dew Point 45 °F
Humidity 98%
Rainfall 0.00 in
Snow Depth Not available.
UV 0 out of 12
Pollen 1.90 out of 12
Air Quality Not available.
Flu Activity No Activity
METAR KTUP 230553Z AUTO 03005KT 10SM CLR 07/05 A3015 RMK AO2 SLP207 T00670050 10144 20067 402060067 58010 PWINO

More Conditions Fewer Conditions

Pressure 30.14 in
Visibility 10.0 miles
Clouds Clear
Windchill 46 °F
Dew Point 45 °F
Humidity 98%
Rainfall 0.00 in
Snow Depth Not available.
UV 0 out of 12
Pollen 1.90 out of 12
Air Quality Not available.
Flu Activity No Activity
METAR KTUP 230553Z AUTO 03005KT 10SM CLR 07/05 A3015 RMK AO2 SLP207 T00670050 10144 20067 402060067 58010 PWINO

More Conditions Fewer Conditions

10-Day Weather Forecast

Almanac

Astronomy

Oct. 23, 2014 Rise Set
Actual Time 7:07 AM CDT 6:11 PM CDT
Civil Twilight 6:41 AM CDT 6:36 PM CDT
Nautical Twilight 6:12 AM CDT 7:06 PM CDT
Astronomical Twilight 5:43 AM CDT 7:35 PM CDT
Moon 6:47 AM CDT 6:12 PM CDT
Length of Visible Light 11h 55m
Length of Day
11h 04m
Tomorrow will be 1m 59s shorter.
Waning Crescent, 0% of the Moon is Illuminated
Today
Waning Crescent
Oct 23
New
Oct 30
First Quarter
Nov 6
Full
Nov 14
Last Quarter

Today's Extremes

State Highs State Lows

Community

WunderPhotos

Upload Photos

1,764,194 photos uploaded!

Nearby

Snow Depth

Station Depth Elevation
No new snow has been reported.

Earthquake Activity

City Distance Mag. Time & Date
No recent earthquake activity has been reported nearby.
Minimum magnitude displayed is 2.5.

Coastal Water Temperatures

Place Temperature
No Stations Reporting

Nearby Weather Stations